Time;durP1;ratioP1;P1;durP2;ratioP2;P2;SDS_P1;SDS_P2;PMS_P1;PMS_P2;Temp;Humidity;BMP_temperature;BMP_pressure;BME280_temperature;BME280_humidity;BME280_pressure;Samples;Min_cycle;Max_cycle;Signal;HPM_P1;HPM_P2
2023/04/03 00:01:13;;;;;;;;;;;;;;;;;;5063084;28;41559;-77
2023/04/03 00:03:41;;;;;;;;;;;;;;;;;;5063141;28;48095;-77
2023/04/03 00:06:08;;;;;;;;;;;;;;;;;;5063407;28;46982;-76
2023/04/03 00:08:35;;;;;;;;;;;;;;;;;;5060586;28;20011;-77
2023/04/03 00:11:02;;;;;;;;;;;;;;;;;;5062986;28;46212;-77
2023/04/03 00:13:28;;;;;;;;;;;;;;;;;;5062967;28;42778;-76
2023/04/03 00:15:54;;;;;;;;;;;;;;;;;;5060130;28;47390;-77
2023/04/03 00:18:21;;;;;;;;;;;;;;;;;;5059301;28;46898;-77
2023/04/03 00:20:47;;;;;;;;;;;;;;;;;;5041881;28;43973;-77
2023/04/03 00:23:13;;;;;;;;;;;;;;;;;;5057693;28;45532;-77
2023/04/03 00:25:40;;;;;;;;;;;;;;;;;;5051634;28;48643;-77
2023/04/03 00:28:06;;;;;;;;;;;;;;;;;;5061445;28;47132;-77
2023/04/03 00:30:32;;;;;;;;;;;;;;;;;;5061604;28;45906;-77
2023/04/03 00:32:58;;;;;;;;;;;;;;;;;;5062483;28;44453;-77
2023/04/03 00:35:25;;;;;;;;;;;;;;;;;;5062736;28;46810;-77
2023/04/03 00:37:51;;;;;;;;;;;;;;;;;;5060498;28;48210;-76
2023/04/03 00:40:17;;;;;;;;;;;;;;;;;;5062508;28;42716;-77
2023/04/03 00:42:43;;;;;;;;;;;;;;;;;;5060213;28;47426;-77
2023/04/03 00:45:10;;;;;;;;;;;;;;;;;;5062308;28;45593;-77
2023/04/03 00:47:36;;;;;;;;;;;;;;;;;;5060803;28;43695;-77
2023/04/03 00:50:02;;;;;;;;;;;;;;;;;;5061827;28;48064;-76
2023/04/03 00:52:28;;;;;;;;;;;;;;;;;;5048813;28;41991;-76
2023/04/03 00:54:54;;;;;;;;;;;;;;;;;;5043726;28;45361;-76
2023/04/03 00:57:21;;;;;;;;;;;;;;;;;;5067578;28;45596;-76
2023/04/03 00:59:47;;;;;;;;;;;;;;;;;;5062732;28;43604;-76
2023/04/03 01:02:13;;;;;;;;;;;;;;;;;;5056026;28;45680;-77
2023/04/03 01:04:40;;;;;;;;;;;;;;;;;;5062376;28;45201;-76
2023/04/03 01:07:06;;;;;;;;;;;;;;;;;;5062025;28;43691;-77
2023/04/03 01:09:32;;;;;;;;;;;;;;;;;;5059421;28;47857;-77
2023/04/03 01:11:59;;;;;;;;;;;;;;;;;;5061097;28;45463;-76
2023/04/03 01:14:25;;;;;;;;;;;;;;;;;;5061228;28;46383;-76
2023/04/03 01:16:52;;;;;;;;;;;;;;;;;;5056144;28;46851;-76
2023/04/03 01:19:18;;;;;;;;;;;;;;;;;;5058121;28;44069;-76
2023/04/03 01:21:45;;;;;;;;;;;;;;;;;;5060841;28;47509;-76
2023/04/03 01:24:11;;;;;;;;;;;;;;;;;;5061438;28;48398;-77
2023/04/03 01:26:37;;;;;;;;;;;;;;;;;;5060993;28;44768;-77
2023/04/03 01:29:03;;;;;;;;;;;;;;;;;;5060237;28;46735;-76
2023/04/03 01:31:30;;;;;;;;;;;;;;;;;;5059828;28;48093;-77
2023/04/03 01:33:56;;;;;;;;;;;;;;;;;;5062735;28;45046;-77
2023/04/03 01:36:23;;;;;;;;;;;;;;;;;;5055030;28;47388;-76
2023/04/03 01:38:50;;;;;;;;;;;;;;;;;;5062826;28;44840;-77
2023/04/03 01:41:16;;;;;;;;;;;;;;;;;;5063768;28;46546;-77
2023/04/03 01:43:42;;;;;;;;;;;;;;;;;;5063551;28;46275;-77
2023/04/03 01:46:09;;;;;;;;;;;;;;;;;;5064374;28;45039;-76
2023/04/03 01:48:35;;;;;;;;;;;;;;;;;;5062323;28;46808;-76
2023/04/03 01:51:01;;;;;;;;;;;;;;;;;;5065213;28;45821;-76
2023/04/03 01:53:27;;;;;;;;;;;;;;;;;;5064089;28;45002;-76
2023/04/03 01:55:54;;;;;;;;;;;;;;;;;;5063267;28;48314;-77
2023/04/03 01:58:20;;;;;;;;;;;;;;;;;;5064637;28;43806;-76
2023/04/03 02:00:46;;;;;;;;;;;;;;;;;;5064477;28;47706;-76
2023/04/03 02:03:12;;;;;;;;;;;;;;;;;;5061190;28;46995;-76
2023/04/03 02:05:39;;;;;;;;;;;;;;;;;;5044627;28;43348;-76
2023/04/03 02:08:05;;;;;;;;;;;;;;;;;;5064733;28;46598;-76
2023/04/03 02:10:32;;;;;;;;;;;;;;;;;;5062344;28;46907;-77
2023/04/03 02:12:58;;;;;;;;;;;;;;;;;;5063345;28;44033;-76
2023/04/03 02:15:24;;;;;;;;;;;;;;;;;;5061322;28;46273;-76
2023/04/03 02:17:50;;;;;;;;;;;;;;;;;;5064948;28;43761;-75
2023/04/03 02:20:17;;;;;;;;;;;;;;;;;;5063967;28;46611;-76
2023/04/03 02:22:43;;;;;;;;;;;;;;;;;;5062603;28;46992;-76
2023/04/03 02:25:10;;;;;;;;;;;;;;;;;;5061898;28;44992;-76
2023/04/03 02:27:36;;;;;;;;;;;;;;;;;;5064019;28;46560;-76
2023/04/03 02:30:02;;;;;;;;;;;;;;;;;;5061873;28;47016;-77
2023/04/03 02:32:29;;;;;;;;;;;;;;;;;;5063485;28;44822;-77
2023/04/03 02:34:55;;;;;;;;;;;;;;;;;;5062541;28;47811;-76
2023/04/03 02:37:22;;;;;;;;;;;;;;;;;;5062794;28;44144;-75
2023/04/03 02:39:48;;;;;;;;;;;;;;;;;;5064816;28;47483;-76
2023/04/03 02:42:14;;;;;;;;;;;;;;;;;;5063162;28;46635;-75
2023/04/03 02:44:40;;;;;;;;;;;;;;;;;;5063673;28;45050;-75
2023/04/03 02:47:07;;;;;;;;;;;;;;;;;;5062211;28;46745;-76
2023/04/03 02:49:33;;;;;;;;;;;;;;;;;;5063497;28;47568;-76
2023/04/03 02:51:59;;;;;;;;;;;;;;;;;;5063096;28;43717;-75
2023/04/03 02:54:28;;;;;;;;;;;;;;;;;;5062448;28;46328;-76
2023/04/03 02:56:54;;;;;;;;;;;;;;;;;;5063067;28;48535;-76
2023/04/03 02:59:21;;;;;;;;;;;;;;;;;;5052846;28;47940;-76
2023/04/03 03:01:47;;;;;;;;;;;;;;;;;;5063316;28;46913;-75
2023/04/03 03:04:13;;;;;;;;;;;;;;;;;;5062617;28;43799;-76
2023/04/03 03:06:40;;;;;;;;;;;;;;;;;;5063244;28;46770;-76
2023/04/03 03:09:07;;;;;;;;;;;;;;;;;;5063077;28;47907;-75
2023/04/03 03:11:34;;;;;;;;;;;;;;;;;;5063259;28;44890;-76
2023/04/03 03:14:00;;;;;;;;;;;;;;;;;;5063670;28;45344;-76
2023/04/03 03:16:27;;;;;;;;;;;;;;;;;;5064743;28;47208;-77
2023/04/03 03:18:53;;;;;;;;;;;;;;;;;;5062142;28;45407;-76
2023/04/03 03:21:19;;;;;;;;;;;;;;;;;;5064062;28;44602;-76
2023/04/03 03:23:46;;;;;;;;;;;;;;;;;;5064736;28;43760;-76
2023/04/03 03:26:12;;;;;;;;;;;;;;;;;;5061981;28;46491;-75
2023/04/03 03:28:38;;;;;;;;;;;;;;;;;;5064161;28;47814;-76
2023/04/03 03:31:05;;;;;;;;;;;;;;;;;;5064472;28;43731;-76
2023/04/03 03:33:31;;;;;;;;;;;;;;;;;;5064355;28;47967;-75
2023/04/03 03:35:57;;;;;;;;;;;;;;;;;;5062026;28;47022;-75
2023/04/03 03:38:24;;;;;;;;;;;;;;;;;;5061928;28;44900;-75
2023/04/03 03:40:50;;;;;;;;;;;;;;;;;;5064592;28;46611;-76
2023/04/03 03:43:16;;;;;;;;;;;;;;;;;;5064287;28;43568;-75
2023/04/03 03:45:43;;;;;;;;;;;;;;;;;;5063272;28;47599;-76
2023/04/03 03:48:09;;;;;;;;;;;;;;;;;;5055858;28;47393;-76
2023/04/03 03:50:35;;;;;;;;;;;;;;;;;;5063801;28;44794;-75
2023/04/03 03:53:01;;;;;;;;;;;;;;;;;;5063941;28;45481;-76
2023/04/03 03:55:28;;;;;;;;;;;;;;;;;;5062580;28;48148;-75
2023/04/03 03:57:54;;;;;;;;;;;;;;;;;;5054607;28;42837;-76
2023/04/03 04:00:20;;;;;;;;;;;;;;;;;;5063303;28;46305;-76
2023/04/03 04:02:47;;;;;;;;;;;;;;;;;;5064042;28;48157;-76
2023/04/03 04:05:13;;;;;;;;;;;;;;;;;;5063347;28;44568;-75
2023/04/03 04:07:39;;;;;;;;;;;;;;;;;;5061158;28;48291;-76
2023/04/03 04:10:06;;;;;;;;;;;;;;;;;;5062399;28;43510;-76
2023/04/03 04:12:32;;;;;;;;;;;;;;;;;;5064237;28;47478;-78
2023/04/03 04:14:58;;;;;;;;;;;;;;;;;;5063051;28;47292;-78
2023/04/03 04:17:24;;;;;;;;;;;;;;;;;;5062903;28;43467;-76
2023/04/03 04:19:51;;;;;;;;;;;;;;;;;;5060881;28;45648;-77
2023/04/03 04:22:17;;;;;;;;;;;;;;;;;;5063337;28;45957;-76
2023/04/03 04:24:43;;;;;;;;;;;;;;;;;;5062920;28;45127;-76
2023/04/03 04:27:10;;;;;;;;;;;;;;;;;;5063052;28;46320;-76
2023/04/03 04:29:37;;;;;;;;;;;;;;;;;;5057053;28;44905;-76
2023/04/03 04:32:03;;;;;;;;;;;;;;;;;;5062557;28;46582;-77
2023/04/03 04:34:29;;;;;;;;;;;;;;;;;;5062338;28;48075;-77
2023/04/03 04:36:56;;;;;;;;;;;;;;;;;;5061978;28;44419;-76
2023/04/03 04:39:22;;;;;;;;;;;;;;;;;;5063372;28;47389;-76
2023/04/03 04:41:49;;;;;;;;;;;;;;;;;;5062418;28;46943;-76
2023/04/03 04:44:15;;;;;;;;;;;;;;;;;;5062977;28;42467;-76
2023/04/03 04:46:41;;;;;;;;;;;;;;;;;;5062943;28;47287;-77
2023/04/03 04:49:08;;;;;;;;;;;;;;;;;;5061577;28;43167;-77
2023/04/03 04:51:34;;;;;;;;;;;;;;;;;;5055264;28;46451;-77
2023/04/03 04:54:13;;;;;;;;;;;;;;;;;;5053116;28;47342;-76
2023/04/03 04:56:40;;;;;;;;;;;;;;;;;;5062700;28;42451;-77
2023/04/03 04:59:06;;;;;;;;;;;;;;;;;;5062781;28;46452;-76
2023/04/03 05:01:32;;;;;;;;;;;;;;;;;;5062313;28;47286;-78
2023/04/03 05:03:59;;;;;;;;;;;;;;;;;;5060226;28;42477;-78
2023/04/03 05:06:25;;;;;;;;;;;;;;;;;;5062271;28;47319;-77
2023/04/03 05:08:51;;;;;;;;;;;;;;;;;;5068422;28;43695;-77
2023/04/03 05:11:17;;;;;;;;;;;;;;;;;;5069982;28;46769;-77
2023/04/03 05:13:44;;;;;;;;;;;;;;;;;;5066696;28;48562;-76
2023/04/03 05:16:11;;;;;;;;;;;;;;;;;;5067117;28;43592;-77
2023/04/03 05:18:37;;;;;;;;;;;;;;;;;;5068596;28;44166;-77
2023/04/03 05:21:03;;;;;;;;;;;;;;;;;;5069273;28;48579;-76
2023/04/03 05:23:30;;;;;;;;;;;;;;;;;;5068158;28;43668;-80
2023/04/03 05:25:56;;;;;;;;;;;;;;;;;;5066174;28;48068;-77
2023/04/03 05:28:22;;;;;;;;;;;;;;;;;;5068872;28;47610;-76
2023/04/03 05:30:48;;;;;;;;;;;;;;;;;;5067163;28;47978;-77
2023/04/03 05:33:15;;;;;;;;;;;;;;;;;;5067558;28;48232;-76
2023/04/03 05:35:41;;;;;;;;;;;;;;;;;;5067925;28;44705;-76
2023/04/03 05:38:07;;;;;;;;;;;;;;;;;;5068203;28;46588;-76
2023/04/03 05:40:34;;;;;;;;;;;;;;;;;;5067870;28;48067;-76
2023/04/03 05:43:00;;;;;;;;;;;;;;;;;;5067227;28;44810;-76
2023/04/03 05:45:26;;;;;;;;;;;;;;;;;;5066788;28;46408;-76
2023/04/03 05:47:53;;;;;;;;;;;;;;;;;;5066399;28;46170;-76
2023/04/03 05:50:19;;;;;;;;;;;;;;;;;;5066213;28;43950;-76
2023/04/03 05:52:45;;;;;;;;;;;;;;;;;;5064572;28;47406;-76
2023/04/03 05:55:12;;;;;;;;;;;;;;;;;;5067856;28;44035;-76
2023/04/03 05:57:38;;;;;;;;;;;;;;;;;;5067264;28;45370;-77
2023/04/03 06:00:05;;;;;;;;;;;;;;;;;;5067014;28;47996;-76
2023/04/03 06:02:31;;;;;;;;;;;;;;;;;;5068201;28;44634;-76
2023/04/03 06:04:58;;;;;;;;;;;;;;;;;;5069000;28;46727;-75
2023/04/03 06:07:27;;;;;;;;;;;;;;;;;;5068066;28;48439;-75
2023/04/03 06:09:54;;;;;;;;;;;;;;;;;;5066878;28;43811;-76
2023/04/03 06:12:20;;;;;;;;;;;;;;;;;;5068400;28;46249;-76
2023/04/03 06:14:47;;;;;;;;;;;;;;;;;;5067388;28;44541;-78
2023/04/03 06:17:13;;;;;;;;;;;;;;;;;;5065357;28;47023;-76
2023/04/03 06:19:40;;;;;;;;;;;;;;;;;;5064201;28;46929;-76
2023/04/03 06:22:06;;;;;;;;;;;;;;;;;;5059661;28;43781;-76
2023/04/03 06:24:33;;;;;;;;;;;;;;;;;;5058999;28;45845;-77
2023/04/03 06:26:59;;;;;;;;;;;;;;;;;;5057259;28;48381;-78
2023/04/03 06:29:25;;;;;;;;;;;;;;;;;;5062549;28;44991;-77
2023/04/03 06:31:52;;;;;;;;;;;;;;;;;;5059456;28;46871;-77
2023/04/03 06:34:18;;;;;;;;;;;;;;;;;;5054300;28;31299;-77
2023/04/03 06:36:48;;;;;;;;;;;;;;;;;;5064858;28;47657;-77
2023/04/03 06:39:14;;;;;;;;;;;;;;;;;;5064083;28;48245;-76
2023/04/03 06:41:40;;;;;;;;;;;;;;;;;;5058702;28;43537;-77
2023/04/03 06:44:10;;;;;;;;;;;;;;;;;;5061683;28;46613;-77
2023/04/03 06:46:36;;;;;;;;;;;;;;;;;;5055086;28;48123;-77
2023/04/03 06:49:03;;;;;;;;;;;;;;;;;;5052388;28;43737;-76
2023/04/03 06:51:30;;;;;;;;;;;;;;;;;;5049469;28;47741;-77
2023/04/03 06:53:56;;;;;;;;;;;;;;;;;;5054642;28;48408;-77
2023/04/03 06:56:22;;;;;;;;;;;;;;;;;;5059877;28;46254;-78
2023/04/03 06:58:49;;;;;;;;;;;;;;;;;;5062754;28;48261;-77
2023/04/03 07:01:16;;;;;;;;;;;;;;;;;;5048374;28;41072;-77
2023/04/03 07:03:42;;;;;;;;;;;;;;;;;;5071481;28;46303;-77
2023/04/03 07:06:09;;;;;;;;;;;;;;;;;;5061355;28;48281;-77
2023/04/03 07:08:35;;;;;;;;;;;;;;;;;;5063511;28;43788;-77
2023/04/03 07:11:01;;;;;;;;;;;;;;;;;;5063010;28;46655;-77
2023/04/03 07:13:28;;;;;;;;;;;;;;;;;;5063921;28;46127;-77
2023/04/03 07:15:54;;;;;;;;;;;;;;;;;;5064911;28;43175;-78
2023/04/03 07:18:21;;;;;;;;;;;;;;;;;;5064829;28;45914;-79
2023/04/03 07:20:47;;;;;;;;;;;;;;;;;;5066174;28;44872;-79
2023/04/03 07:23:13;;;;;;;;;;;;;;;;;;5063662;28;48052;-77
2023/04/03 07:25:40;;;;;;;;;;;;;;;;;;5065386;28;47162;-78
2023/04/03 07:28:08;;;;;;;;;;;;;;;;;;5065894;28;44927;-78
2023/04/03 07:30:34;;;;;;;;;;;;;;;;;;5062465;28;45236;-78
2023/04/03 07:33:01;;;;;;;;;;;;;;;;;;5061922;28;46974;-78
2023/04/03 07:35:27;;;;;;;;;;;;;;;;;;5064034;28;40444;-78
2023/04/03 07:37:54;;;;;;;;;;;;;;;;;;5065779;28;47878;-79
2023/04/03 07:40:21;;;;;;;;;;;;;;;;;;5062818;28;42393;-79
2023/04/03 07:42:47;;;;;;;;;;;;;;;;;;5063008;28;44390;-78
2023/04/03 07:45:13;;;;;;;;;;;;;;;;;;5067709;28;45857;-79
2023/04/03 07:47:40;;;;;;;;;;;;;;;;;;5067626;28;42804;-79
2023/04/03 07:50:06;;;;;;;;;;;;;;;;;;5067184;28;44908;-78
2023/04/03 07:52:33;;;;;;;;;;;;;;;;;;5066070;28;47982;-79
2023/04/03 07:54:59;;;;;;;;;;;;;;;;;;5065969;28;42685;-79
2023/04/03 07:57:25;;;;;;;;;;;;;;;;;;5066109;28;46532;-79
2023/04/03 07:59:52;;;;;;;;;;;;;;;;;;5068693;28;45365;-78
2023/04/03 08:02:18;;;;;;;;;;;;;;;;;;5065535;28;47026;-79
2023/04/03 08:04:44;;;;;;;;;;;;;;;;;;5063674;28;44916;-79
2023/04/03 08:07:11;;;;;;;;;;;;;;;;;;5064846;28;46172;-79
2023/04/03 08:09:37;;;;;;;;;;;;;;;;;;5065965;28;47529;-78
2023/04/03 08:12:03;;;;;;;;;;;;;;;;;;5063959;28;46033;-79
2023/04/03 08:14:30;;;;;;;;;;;;;;;;;;5061764;28;45056;-78
2023/04/03 08:16:56;;;;;;;;;;;;;;;;;;5066533;28;47673;-79
2023/04/03 08:19:22;;;;;;;;;;;;;;;;;;5064296;28;48150;-79
2023/04/03 08:21:51;;;;;;;;;;;;;;;;;;5055439;28;43627;-79
2023/04/03 08:24:18;;;;;;;;;;;;;;;;;;5061192;28;46824;-79
2023/04/03 08:26:44;;;;;;;;;;;;;;;;;;5062742;28;42102;-79
2023/04/03 08:29:10;;;;;;;;;;;;;;;;;;5062760;28;44667;-79
2023/04/03 08:31:37;;;;;;;;;;;;;;;;;;5064394;28;48379;-79
2023/04/03 08:34:03;;;;;;;;;;;;;;;;;;5060459;28;45035;-79
2023/04/03 08:36:29;;;;;;;;;;;;;;;;;;5064333;28;46250;-79
2023/04/03 08:38:56;;;;;;;;;;;;;;;;;;5064065;28;47972;-78
2023/04/03 08:41:22;;;;;;;;;;;;;;;;;;5065598;28;42276;-79
2023/04/03 08:43:48;;;;;;;;;;;;;;;;;;5063839;28;46801;-79
2023/04/03 08:46:15;;;;;;;;;;;;;;;;;;5057891;28;44172;-80
2023/04/03 08:48:41;;;;;;;;;;;;;;;;;;5060506;28;47501;-80
2023/04/03 08:51:11;;;;;;;;;;;;;;;;;;5065276;28;46978;-79
2023/04/03 08:53:38;;;;;;;;;;;;;;;;;;5062731;28;45386;-78
2023/04/03 08:56:04;;;;;;;;;;;;;;;;;;5064317;28;44061;-80
2023/04/03 08:58:31;;;;;;;;;;;;;;;;;;5060001;28;48146;-79
2023/04/03 09:00:58;;;;;;;;;;;;;;;;;;5063950;28;42994;-79
2023/04/03 09:03:24;;;;;;;;;;;;;;;;;;5063919;28;47055;-80
2023/04/03 09:05:50;;;;;;;;;;;;;;;;;;5063539;28;43689;-78
2023/04/03 09:08:17;;;;;;;;;;;;;;;;;;5064705;28;46635;-80
2023/04/03 09:10:43;;;;;;;;;;;;;;;;;;5062716;28;48280;-80
2023/04/03 09:13:09;;;;;;;;;;;;;;;;;;5063864;28;42404;-80
2023/04/03 09:15:36;;;;;;;;;;;;;;;;;;5061974;28;46313;-79
2023/04/03 09:18:04;;;;;;;;;;;;;;;;;;5063606;28;48524;-80
2023/04/03 09:20:31;;;;;;;;;;;;;;;;;;5064338;28;44917;-80
2023/04/03 09:22:57;;;;;;;;;;;;;;;;;;5062316;28;46623;-79
2023/04/03 09:25:24;;;;;;;;;;;;;;;;;;5065473;28;47003;-79
2023/04/03 09:27:51;;;;;;;;;;;;;;;;;;5066911;28;46338;-80
2023/04/03 09:30:17;;;;;;;;;;;;;;;;;;5068107;28;48434;-80
2023/04/03 09:32:43;;;;;;;;;;;;;;;;;;5062418;28;43541;-79
2023/04/03 09:35:09;;;;;;;;;;;;;;;;;;5066724;28;47365;-79
2023/04/03 09:37:46;;;;;;;;;;;;;;;;;;5066494;28;48102;-79
2023/04/03 09:40:13;;;;;;;;;;;;;;;;;;5067341;28;42048;-79
2023/04/03 09:42:39;;;;;;;;;;;;;;;;;;5071466;28;46179;-80
2023/04/03 09:45:07;;;;;;;;;;;;;;;;;;5068481;28;49601;-79
2023/04/03 09:47:33;;;;;;;;;;;;;;;;;;5069328;28;43598;-80
2023/04/03 09:50:00;;;;;;;;;;;;;;;;;;5068175;28;48093;-79
2023/04/03 09:52:26;;;;;;;;;;;;;;;;;;5068933;28;43889;-81
2023/04/03 09:54:52;;;;;;;;;;;;;;;;;;5073196;28;46324;-81
2023/04/03 09:57:19;;;;;;;;;;;;;;;;;;5074113;28;45364;-79
2023/04/03 09:59:45;;;;;;;;;;;;;;;;;;5074150;28;44366;-81
2023/04/03 10:02:11;;;;;;;;;;;;;;;;;;5078472;28;48405;-80
2023/04/03 10:04:38;;;;;;;;;;;;;;;;;;5074487;28;44357;-80
2023/04/03 10:07:04;;;;;;;;;;;;;;;;;;5068537;28;45053;-79
2023/04/03 10:09:30;;;;;;;;;;;;;;;;;;5073374;28;45438;-79
2023/04/03 10:11:56;;;;;;;;;;;;;;;;;;5073007;28;45872;-81
2023/04/03 10:14:23;;;;;;;;;;;;;;;;;;5071210;28;47514;-81
2023/04/03 10:16:49;;;;;;;;;;;;;;;;;;5071700;28;46907;-79
2023/04/03 10:19:16;;;;;;;;;;;;;;;;;;5068340;28;42494;-79
2023/04/03 10:21:42;;;;;;;;;;;;;;;;;;5068810;28;45289;-81
2023/04/03 10:24:11;;;;;;;;;;;;;;;;;;5068346;28;47866;-81
2023/04/03 10:26:37;;;;;;;;;;;;;;;;;;5066841;28;42116;-79
2023/04/03 10:29:04;;;;;;;;;;;;;;;;;;5070079;28;45529;-80
2023/04/03 10:31:30;;;;;;;;;;;;;;;;;;5072559;28;46907;-83
2023/04/03 10:33:57;;;;;;;;;;;;;;;;;;5073800;28;45245;-80
2023/04/03 10:36:23;;;;;;;;;;;;;;;;;;5055110;28;47312;-78
2023/04/03 10:38:49;;;;;;;;;;;;;;;;;;5063152;28;42933;-78
2023/04/03 10:41:15;;;;;;;;;;;;;;;;;;5060254;28;44141;-81
2023/04/03 10:43:42;;;;;;;;;;;;;;;;;;5059967;28;47231;-78
2023/04/03 10:46:09;;;;;;;;;;;;;;;;;;5059722;28;42438;-78
2023/04/03 10:48:35;;;;;;;;;;;;;;;;;;5059645;28;45406;-78
2023/04/03 10:51:02;;;;;;;;;;;;;;;;;;5053014;28;45082;-78
2023/04/03 10:53:32;;;;;;;;;;;;;;;;;;5060304;28;46838;-78
2023/04/03 10:55:58;;;;;;;;;;;;;;;;;;5059306;28;47167;-78
2023/04/03 10:58:25;;;;;;;;;;;;;;;;;;5062376;28;44674;-77
2023/04/03 11:00:51;;;;;;;;;;;;;;;;;;5061008;28;47464;-78
2023/04/03 11:03:18;;;;;;;;;;;;;;;;;;5057709;28;47419;-80
2023/04/03 11:05:44;;;;;;;;;;;;;;;;;;5071407;28;43721;-80
2023/04/03 11:08:10;;;;;;;;;;;;;;;;;;5058406;28;47396;-79
2023/04/03 11:10:36;;;;;;;;;;;;;;;;;;5061435;28;47328;-80
2023/04/03 11:13:03;;;;;;;;;;;;;;;;;;5062982;28;42925;-78
2023/04/03 11:15:29;;;;;;;;;;;;;;;;;;5062910;28;46047;-77
2023/04/03 11:17:56;;;;;;;;;;;;;;;;;;5060323;28;43737;-78
2023/04/03 11:20:27;;;;;;;;;;;;;;;;;;5058691;28;45611;-78
2023/04/03 11:22:53;;;;;;;;;;;;;;;;;;5064926;28;44857;-80
2023/04/03 11:25:21;;;;;;;;;;;;;;;;;;5062671;28;45332;-79
2023/04/03 11:27:47;;;;;;;;;;;;;;;;;;5060848;28;46180;-79
2023/04/03 11:30:17;;;;;;;;;;;;;;;;;;5058118;28;47310;-80
2023/04/03 11:32:43;;;;;;;;;;;;;;;;;;5058103;28;43932;-80
2023/04/03 11:35:10;;;;;;;;;;;;;;;;;;5064036;28;47505;-78
2023/04/03 11:37:37;;;;;;;;;;;;;;;;;;5058286;28;43692;-78
2023/04/03 11:40:03;;;;;;;;;;;;;;;;;;5062495;28;45162;-79
2023/04/03 11:42:30;;;;;;;;;;;;;;;;;;5062582;28;46843;-78
2023/04/03 11:44:56;;;;;;;;;;;;;;;;;;5061705;28;44911;-78
2023/04/03 11:47:22;;;;;;;;;;;;;;;;;;5061641;28;46247;-79
2023/04/03 11:49:49;;;;;;;;;;;;;;;;;;5066110;28;48312;-84
2023/04/03 11:52:18;;;;;;;;;;;;;;;;;;5060387;28;44808;-79
2023/04/03 11:54:45;;;;;;;;;;;;;;;;;;5061439;28;47048;-81
2023/04/03 11:57:11;;;;;;;;;;;;;;;;;;5062379;28;48639;-79
2023/04/03 11:59:38;;;;;;;;;;;;;;;;;;5064703;28;44099;-79
2023/04/03 12:02:04;;;;;;;;;;;;;;;;;;5063413;28;46673;-80
2023/04/03 12:04:31;;;;;;;;;;;;;;;;;;5061587;28;45802;-78
2023/04/03 12:06:58;;;;;;;;;;;;;;;;;;5062632;28;47416;-78
2023/04/03 12:09:24;;;;;;;;;;;;;;;;;;5062413;28;45972;-79
2023/04/03 12:11:50;;;;;;;;;;;;;;;;;;5061831;28;43843;-79
2023/04/03 12:14:17;;;;;;;;;;;;;;;;;;5062963;28;46036;-79
2023/04/03 12:16:43;;;;;;;;;;;;;;;;;;5060994;28;47026;-78
2023/04/03 12:19:11;;;;;;;;;;;;;;;;;;5050938;28;41925;-82
2023/04/03 12:21:37;;;;;;;;;;;;;;;;;;5061164;28;47266;-78
2023/04/03 12:24:03;;;;;;;;;;;;;;;;;;5060259;28;44613;-79
2023/04/03 12:26:30;;;;;;;;;;;;;;;;;;5060304;28;46071;-79
2023/04/03 12:29:04;;;;;;;;;;;;;;;;;;5060393;28;47502;-79
2023/04/03 12:31:30;;;;;;;;;;;;;;;;;;5060698;28;42630;-79
2023/04/03 12:33:57;;;;;;;;;;;;;;;;;;5059543;28;46729;-79
2023/04/03 12:36:24;;;;;;;;;;;;;;;;;;5057509;28;50306;-79
2023/04/03 12:38:50;;;;;;;;;;;;;;;;;;5058579;28;42825;-78
2023/04/03 12:41:16;;;;;;;;;;;;;;;;;;5062784;28;47925;-78
2023/04/03 12:43:43;;;;;;;;;;;;;;;;;;5061147;28;44685;-78
2023/04/03 12:46:11;;;;;;;;;;;;;;;;;;5061912;28;46696;-79
2023/04/03 12:48:38;;;;;;;;;;;;;;;;;;5059808;28;50160;-79
2023/04/03 12:51:04;;;;;;;;;;;;;;;;;;5061659;28;42497;-79
2023/04/03 12:53:32;;;;;;;;;;;;;;;;;;5061010;28;44007;-79
2023/04/03 12:55:58;;;;;;;;;;;;;;;;;;5057845;28;47236;-79
2023/04/03 12:58:24;;;;;;;;;;;;;;;;;;5061413;28;43528;-79
2023/04/03 13:00:51;;;;;;;;;;;;;;;;;;5061573;28;45065;-80
2023/04/03 13:03:17;;;;;;;;;;;;;;;;;;5056078;28;43652;-79
2023/04/03 13:05:44;;;;;;;;;;;;;;;;;;5058615;28;47369;-78
2023/04/03 13:08:10;;;;;;;;;;;;;;;;;;5056866;28;48089;-78
2023/04/03 13:10:36;;;;;;;;;;;;;;;;;;5059809;28;42492;-79
2023/04/03 13:13:02;;;;;;;;;;;;;;;;;;5057850;28;47481;-78
2023/04/03 13:15:29;;;;;;;;;;;;;;;;;;5057922;28;47361;-79
2023/04/03 13:17:56;;;;;;;;;;;;;;;;;;5058830;28;41452;-79
2023/04/03 13:20:22;;;;;;;;;;;;;;;;;;5057974;28;46019;-78
2023/04/03 13:22:49;;;;;;;;;;;;;;;;;;5053328;28;48355;-78
2023/04/03 13:25:15;;;;;;;;;;;;;;;;;;5056090;28;46387;-81
2023/04/03 13:27:43;;;;;;;;;;;;;;;;;;5057389;28;47394;-80
2023/04/03 13:30:09;;;;;;;;;;;;;;;;;;5062749;28;43592;-79
2023/04/03 13:32:36;;;;;;;;;;;;;;;;;;5060472;28;46299;-78
2023/04/03 13:35:04;;;;;;;;;;;;;;;;;;5063691;28;45284;-78
2023/04/03 13:37:43;;;;;;;;;;;;;;;;;;5060956;28;41915;-79
2023/04/03 13:40:10;;;;;;;;;;;;;;;;;;5063581;28;46436;-78
2023/04/03 13:42:37;;;;;;;;;;;;;;;;;;5065175;28;48833;-80
2023/04/03 13:45:03;;;;;;;;;;;;;;;;;;5065717;28;45105;-78
2023/04/03 13:47:29;;;;;;;;;;;;;;;;;;5064248;28;47636;-79
2023/04/03 13:49:56;;;;;;;;;;;;;;;;;;5062606;28;46882;-78
2023/04/03 13:52:22;;;;;;;;;;;;;;;;;;5062512;28;46609;-80
2023/04/03 13:54:48;;;;;;;;;;;;;;;;;;5062266;28;48619;-78
2023/04/03 13:57:14;;;;;;;;;;;;;;;;;;5065329;28;44059;-77
2023/04/03 13:59:41;;;;;;;;;;;;;;;;;;5062269;28;47727;-77
2023/04/03 14:02:07;;;;;;;;;;;;;;;;;;5063081;28;45806;-79
2023/04/03 14:04:33;;;;;;;;;;;;;;;;;;5058817;28;45082;-79
2023/04/03 14:06:59;;;;;;;;;;;;;;;;;;5064891;28;48018;-78
2023/04/03 14:09:26;;;;;;;;;;;;;;;;;;5062807;28;44911;-78
2023/04/03 14:11:52;;;;;;;;;;;;;;;;;;5058675;28;47976;-81
2023/04/03 14:14:19;;;;;;;;;;;;;;;;;;5064826;28;46856;-76
2023/04/03 14:16:45;;;;;;;;;;;;;;;;;;5061892;28;44018;-77
2023/04/03 14:19:11;;;;;;;;;;;;;;;;;;5054262;28;47016;-77
2023/04/03 14:21:37;;;;;;;;;;;;;;;;;;5051247;28;47471;-79
2023/04/03 14:24:04;;;;;;;;;;;;;;;;;;5049632;28;43839;-78
2023/04/03 14:26:30;;;;;;;;;;;;;;;;;;5050460;28;46826;-79
2023/04/03 14:28:56;;;;;;;;;;;;;;;;;;5063755;28;48343;-81
2023/04/03 14:31:23;;;;;;;;;;;;;;;;;;5055433;28;46403;-81
2023/04/03 14:33:49;;;;;;;;;;;;;;;;;;5064677;28;47038;-79
2023/04/03 14:36:16;;;;;;;;;;;;;;;;;;5062887;28;42396;-77
2023/04/03 14:38:42;;;;;;;;;;;;;;;;;;5064469;28;47742;-78
2023/04/03 14:41:08;;;;;;;;;;;;;;;;;;5061195;28;48785;-77
2023/04/03 14:43:41;;;;;;;;;;;;;;;;;;5061274;28;45223;-76
2023/04/03 14:46:07;;;;;;;;;;;;;;;;;;5063076;28;46338;-80
2023/04/03 14:48:34;;;;;;;;;;;;;;;;;;5060573;28;46031;-80
2023/04/03 14:51:00;;;;;;;;;;;;;;;;;;5058834;28;43869;-78
2023/04/03 14:53:32;;;;;;;;;;;;;;;;;;5061293;28;48504;-77
2023/04/03 14:56:04;;;;;;;;;;;;;;;;;;5060531;28;43716;-78
2023/04/03 14:58:31;;;;;;;;;;;;;;;;;;5058797;28;48089;-79
2023/04/03 15:00:58;;;;;;;;;;;;;;;;;;5056948;28;47260;-78
2023/04/03 15:03:24;;;;;;;;;;;;;;;;;;5060674;28;43500;-80
2023/04/03 15:05:51;;;;;;;;;;;;;;;;;;5059715;28;46033;-77
2023/04/03 15:08:17;;;;;;;;;;;;;;;;;;5047109;28;47025;-79
2023/04/03 15:10:43;;;;;;;;;;;;;;;;;;5064821;28;44047;-78
2023/04/03 15:13:09;;;;;;;;;;;;;;;;;;5062307;28;48286;-77
2023/04/03 15:15:35;;;;;;;;;;;;;;;;;;5060751;28;44025;-77
2023/04/03 15:18:02;;;;;;;;;;;;;;;;;;5060752;28;46420;-78
2023/04/03 15:20:30;;;;;;;;;;;;;;;;;;5059203;28;44632;-77
2023/04/03 15:22:56;;;;;;;;;;;;;;;;;;5058674;28;41648;-77
2023/04/03 15:25:23;;;;;;;;;;;;;;;;;;5064050;28;47375;-77
2023/04/03 15:27:49;;;;;;;;;;;;;;;;;;5064275;28;47270;-77
2023/04/03 15:30:15;;;;;;;;;;;;;;;;;;5064595;28;43987;-77
2023/04/03 15:32:41;;;;;;;;;;;;;;;;;;5062449;28;46434;-76
2023/04/03 15:35:08;;;;;;;;;;;;;;;;;;5063369;28;45426;-77
2023/04/03 15:37:34;;;;;;;;;;;;;;;;;;5062200;28;46734;-77
2023/04/03 15:40:00;;;;;;;;;;;;;;;;;;5061810;28;45768;-80
2023/04/03 15:42:26;;;;;;;;;;;;;;;;;;5059272;28;44785;-77
2023/04/03 15:44:53;;;;;;;;;;;;;;;;;;5062368;28;45962;-78
2023/04/03 15:47:19;;;;;;;;;;;;;;;;;;5060207;28;45454;-78
2023/04/03 15:49:49;;;;;;;;;;;;;;;;;;5074613;28;43465;-79
2023/04/03 15:52:15;;;;;;;;;;;;;;;;;;5061174;28;48760;-79
2023/04/03 15:54:41;;;;;;;;;;;;;;;;;;5064042;28;45475;-78
2023/04/03 15:57:08;;;;;;;;;;;;;;;;;;5057580;28;45964;-79
2023/04/03 15:59:34;;;;;;;;;;;;;;;;;;5062077;28;48300;-78
2023/04/03 16:02:00;;;;;;;;;;;;;;;;;;5063246;28;42596;-78
2023/04/03 16:04:27;;;;;;;;;;;;;;;;;;5061084;28;46282;-77
2023/04/03 16:06:53;;;;;;;;;;;;;;;;;;5063304;28;47085;-77
2023/04/03 16:09:19;;;;;;;;;;;;;;;;;;5062124;28;45187;-78
2023/04/03 16:11:46;;;;;;;;;;;;;;;;;;5061786;28;47435;-78
2023/04/03 16:14:12;;;;;;;;;;;;;;;;;;5061495;28;47271;-79
2023/04/03 16:16:38;;;;;;;;;;;;;;;;;;5043718;28;45794;-78
2023/04/03 16:19:04;;;;;;;;;;;;;;;;;;5044229;28;46878;-78
2023/04/03 16:21:31;;;;;;;;;;;;;;;;;;5062659;28;43673;-79
2023/04/03 16:23:57;;;;;;;;;;;;;;;;;;5059862;28;46704;-78
2023/04/03 16:26:25;;;;;;;;;;;;;;;;;;5060371;28;46853;-78
2023/04/03 16:28:51;;;;;;;;;;;;;;;;;;5061427;28;42080;-79
2023/04/03 16:31:17;;;;;;;;;;;;;;;;;;5063379;28;47599;-78
2023/04/03 16:33:43;;;;;;;;;;;;;;;;;;5057991;28;47229;-79
2023/04/03 16:36:10;;;;;;;;;;;;;;;;;;5056490;28;43645;-79
2023/04/03 16:38:36;;;;;;;;;;;;;;;;;;5062613;28;48304;-77
2023/04/03 16:41:04;;;;;;;;;;;;;;;;;;5064296;28;45666;-78